Mattawa, Canada
Current Conditions -  °F | °C
As of 12:00 PM on Sunday 21 Dec 2014 (Local Time) from CYYB Reporting Station
Broken Clouds Broken Clouds  
Wind Chill: 27°   Ceiling: 20000
Heat Index: 27°   Visibility: 30mi
Dew Point: 19°   Wind: 0mph
Humidity: 74%   Direction: NA
Pressure: 30.22"   Gusts: NA
Location:  46.32°N, 78.7°W
Report Text: CYYB 211700Z 00000KT 30SM FEW080 BKN200 M03/M07 A3022 RMK AC1CI5 SLP257
Loading
Personal Weather Stations






























Interactive Weather Map New forecast layout! Learn more

10-Day Weather Forecast

Advertisements
Track Severe Weather on mobile